GAKY

Kayes Dag Dag Airport

Mali
METAR GAKY 160900Z 04005KT 010V070 8000 NSC 22/M02 Q1016
Observed Flight Rules
Dec-16 @ 09:00 UTC (2 hours ago) Marginal Visual Flight Rules
Wind Visibility Clouds
40° at 5 knots 7,998 meters
  • Clear skies
Temperatures Readings
Current 22°C / 72°F
Dewpoint -2°C / 28°F
Humidity 20%
Altimeter 30" Hg
Pressure 1016 hPa
Elevation 47
METAR GAKY 160900Z 04005KT 010V070 8000 NSC 22/M02 Q1016
Observed Flight Rules
Dec-16 @ 09:00 UTC
(2 hours ago)
MVFR
Wind Visibility
40° at 5 knots 7,998 meters
Clouds
  • Clear skies
Temperature Dewpoint
22°C / 72°F -2°C / 28°F
Humidity Altimeter Pressure
20% 30" Hg 1016 hPa